Hudson Bay, Canada
Current Conditions -  °F | °C
As of 10:00 AM on Monday 20 Oct 2014 (Local Time) from CYBU Reporting Station
Clear Clear  
Wind Chill: 50°   Ceiling: Unl
Heat Index: 50°   Visibility: 9mi
Dew Point: 43°   Wind: 7mph
Humidity: 76%   Direction: 130°SE
Pressure: 29.82"   Gusts: NA
Location:  52.86°N, 102.39°W
Report Text: CYBU 201600Z AUTO 13006KT 9SM CLR 10/06 A2982 RMK SLP112
Loading
Personal Weather Stations






























Interactive Weather Map New forecast layout! Learn more

10-Day Weather Forecast

Advertisements
Track Severe Weather on mobile